Station: Macquarie Island  

  Atmospheric Gas Attenuation - ITU Rec 676-11   ----------------- dB/100km -----------------
Date Time Temp RH % AH g/m3 Dew Point Wind Direction Speed kph Gust kph Barometer mB Rainfall Since 9am 24GHz 47GHz 76GHz 122GHz 134GHz 241GHz
01/09 12:10 1.8 93 5.1 0.8 19 32 992.4 2.4 12.5 22.7 30.1 78.8 63.0 213.0
01/09 12:00 1.6 92 4.98 0.4 19 30 992.8 2.4 12.3 22.6 29.7 77.7 61.6 208.0
01/09 11:50 1.7 93 5.07 0.7 19 30 993.1 2.2 12.5 22.7 30.0 78.6 62.7 212.0
01/09 11:40 1.5 93 5 0.5 13 26 993.3 2.2 12.3 22.7 29.8 78.1 61.9 209.3
01/09 11:30 1.4 93 4.97 0.4 11 20 993.5 2.2 12.3 22.6 29.8 77.9 61.6 208.2
01/09 11:20 1.4 93 4.97 0.4 11 17 993.7 2 12.3 22.6 29.8 77.9 61.7 208.3
01/09 11:10 1.3 92 4.88 0.1 11 20 994 2 12.1 22.5 29.5 77.1 60.6 204.4
01/09 11:00 1.2 92 4.85 0 11 20 994.3 2 12.0 22.5 29.4 76.9 60.2 203.3
01/09 10:50 1.2 92 4.85 0 9 19 994.6 1.8 12.0 22.5 29.4 76.9 60.3 203.4
01/09 10:40 1.1 92 4.81 -0.1 9 15 994.9 1.8 11.9 22.5 29.3 76.6 59.8 201.8
01/09 10:30 1 91 4.73 -0.3 7 17 995 1.6 11.8 22.4 29.0 75.8 58.9 198.4
01/09 10:20 1 91 4.73 -0.3 6 15 995.1 1.4 11.8 22.4 29.0 75.8 58.9 198.4
01/09 10:10 1 90 4.68 -0.5 6 13 995.4 1.2 11.7 22.3 28.8 75.3 58.2 196.1
01/09 10:00 0.9 90 4.65 -0.5 9 15 995.6 1 11.6 22.3 28.8 75.1 57.9 195.0
01/09 09:50 1 89 4.63 -0.6 7 13 996 0.8 11.5 22.3 28.7 74.9 57.6 193.9
01/09 09:40 1.1 88 4.6 -0.7 7 13 996.2 0.6 11.5 22.2 28.5 74.5 57.1 192.3
01/09 09:30 1.2 88 4.64 -0.6 6 9 996.3 0.2 11.6 22.3 28.6 74.8 57.6 193.9
01/09 09:20 1.1 87 4.55 -0.8 7 13 996.3 0 11.4 22.1 28.3 73.9 56.5 190.0
01/09 09:10 1.2 87 4.58 -0.7 7 13 996.4 0 11.4 22.2 28.4 74.2 56.8 191.2
01/09 09:00 1.1 86 4.5 -1 7 11 996.4 0 11.3 22.1 28.1 73.4 55.8 187.7
01/09 08:50 1.1 86 4.5 -1 9 13 996.4 1.8 11.3 22.1 28.1 73.4 55.8 187.7
01/09 08:40 1.1 86 4.5 -1 9 11 996.6 1.8 11.3 22.1 28.1 73.4 55.8 187.8
01/09 08:30 1.1 84 4.4 -1.3 7 9 996.8 1.8 11.0 21.9 27.7 72.4 54.5 183.2
01/09 08:20 1.2 83 4.37 -1.4 9 11 996.9 1.6 11.0 21.9 27.6 72.0 54.1 181.6
01/09 08:10 1.3 81 4.3 -1.6 11 13 997.1 1.6 10.8 21.7 27.3 71.2 53.1 178.2
01/09 08:00 1.3 78 4.14 -2.1 13 17 997.3 1.6 10.5 21.5 26.7 69.5 51.1 171.0
01/09 07:50 1.7 74 4.03 -2.4 13 19 997.5 1.6 10.2 21.2 26.1 68.1 49.4 165.3
01/09 07:40 1.8 73 4.01 -2.5 13 19 997.6 1.6 10.2 21.2 26.0 67.8 49.1 164.2
01/09 07:30 2 71 3.95 -2.7 6 15 997.7 1.6 10.0 21.0 25.7 67.0 48.2 161.1
01/09 07:20 1.7 71 3.87 -3 0 0 997.7 1.6 9.9 21.0 25.5 66.4 47.4 158.2
01/09 07:10 1.6 69 3.74 -3.5 0 0 997.8 1.6 9.6 20.8 25.1 65.2 45.8 152.6
01/09 07:00 1.5 69 3.71 -3.6 0 0 997.8 1.6 9.5 20.8 25.0 65.0 45.5 151.5
01/09 06:50 1.5 69 3.71 -3.6 0 0 997.9 1.6 9.5 20.8 25.0 65.0 45.5 151.5
01/09 06:40 1.3 70 3.71 -3.6 2 7 997.9 1.6 9.5 20.8 25.0 65.2 45.6 151.9
01/09 06:30 1.3 69 3.66 -3.7 6 7 998.1 1.6 9.4 20.8 24.9 64.7 45.0 149.7
01/09 06:20 1.3 68 3.61 -3.9 7 9 998.1 1.6 9.3 20.7 24.7 64.2 44.4 147.5
01/09 06:10 1.4 68 3.63 -3.8 9 11 998.2 1.6 9.4 20.7 24.7 64.3 44.6 148.2
01/09 06:00 1.7 67 3.65 -3.8 13 17 998.4 1.6 9.4 20.7 24.7 64.3 44.7 148.6
01/09 05:50 1.8 66 3.62 -3.9 13 19 998.6 1.6 9.3 20.6 24.6 63.9 44.2 147.1
01/09 05:40 1.9 66 3.65 -3.8 17 22 998.7 1.6 9.4 20.6 24.7 64.1 44.6 148.2
01/09 05:30 1.9 65 3.59 -4 17 22 998.7 1.6 9.3 20.5 24.4 63.5 43.8 145.6
01/09 05:20 1.8 63 3.46 -4.5 19 24 998.7 1.6 9.0 20.4 24.0 62.3 42.3 140.1
01/09 05:10 1.8 63 3.46 -4.5 19 26 998.8 1.6 9.0 20.4 24.0 62.3 42.3 140.1
01/09 05:00 1.8 62 3.4 -4.7 19 26 998.8 1.6 8.9 20.3 23.8 61.7 41.5 137.5
01/09 04:50 1.7 62 3.38 -4.8 19 28 999 1.6 8.8 20.3 23.7 61.6 41.3 136.8
01/09 04:40 1.8 59 3.24 -5.3 22 30 999.2 1.6 8.5 20.1 23.2 60.1 39.6 130.6
01/09 04:30 1.8 60 3.29 -5.1 24 32 999.2 1.6 8.6 20.1 23.4 60.6 40.2 132.8
01/09 04:20 1.8 63 3.46 -4.5 26 35 999.2 1.6 9.0 20.4 24.0 62.3 42.3 140.2
01/09 04:10 1.8 65 3.57 -4.1 30 35 999.2 1.6 9.2 20.6 24.4 63.4 43.6 145.0
01/09 04:00 1.8 65 3.57 -4.1 28 35 999.3 1.6 9.2 20.6 24.4 63.4 43.7 145.0
01/09 03:50 1.9 66 3.65 -3.8 28 37 999.4 1.6 9.4 20.7 24.7 64.2 44.6 148.3
01/09 03:40 1.9 64 3.54 -4.2 30 39 999.5 1.6 9.2 20.5 24.3 63.1 43.2 143.5
01/09 03:30 1.9 60 3.32 -5 32 39 999.5 1.6 8.7 20.2 23.5 60.9 40.5 134.0
01/09 03:20 1.9 62 3.43 -4.6 32 39 999.7 1.6 8.9 20.3 23.9 62.0 41.9 138.8
01/09 03:10 1.9 61 3.37 -4.8 32 41 999.9 1.6 8.8 20.3 23.7 61.4 41.1 136.2
01/09 03:00 1.9 63 3.48 -4.4 32 39 1000 1.6 9.0 20.4 24.1 62.5 42.5 141.0
01/09 02:50 1.9 61 3.37 -4.8 33 41 1000.1 1.6 8.8 20.3 23.7 61.4 41.2 136.2
01/09 02:40 2 62 3.45 -4.5 32 41 1000.4 1.6 9.0 20.4 23.9 62.2 42.1 139.5
01/09 02:30 1.9 64 3.54 -4.2 30 37 1000.5 1.6 9.2 20.5 24.3 63.2 43.3 143.7
01/09 02:20 2 61 3.39 -4.7 32 41 1000.6 1.6 8.8 20.3 23.7 61.6 41.4 137.0
01/09 02:10 1.9 59 3.26 -5.2 37 44 1000.5 1.6 8.6 20.1 23.3 60.4 39.8 131.5
01/09 02:00 1.9 63 3.48 -4.4 37 44 1000.4 1.6 9.0 20.4 24.1 62.5 42.5 141.0
01/09 01:50 1.9 63 3.48 -4.4 35 43 1000.4 1.6 9.0 20.4 24.1 62.5 42.5 141.0
01/09 01:40 1.9 63 3.48 -4.4 35 44 1000.6 1.6 9.0 20.4 24.1 62.6 42.5 141.0
01/09 01:30 1.8 66 3.62 -3.9 33 43 1000.7 1.6 9.3 20.7 24.6 64.1 44.3 147.4
01/09 01:20 1.9 67 3.7 -3.6 32 44 1000.7 1.6 9.5 20.8 24.9 64.8 45.3 150.7
01/09 01:10 1.8 63 3.46 -4.5 35 50 1000.9 1.6 9.0 20.5 24.1 62.5 42.4 140.4
01/09 01:00 1.8 63 3.46 -4.5 32 46 1001 1.6 9.0 20.5 24.1 62.5 42.4 140.4
01/09 00:50 1.8 66 3.62 -3.9 37 48 1001.2 1.6 9.3 20.7 24.7 64.1 44.4 147.4
01/09 00:40 1.8 64 3.51 -4.3 35 46 1001.1 1.6 9.1 20.5 24.3 63.0 43.0 142.6
01/09 00:30 1.7 61 3.32 -5 35 46 1001.2 1.6 8.7 20.3 23.6 61.2 40.7 134.5
01/09 00:20 1.7 64 3.49 -4.4 33 50 1001.3 1.6 9.1 20.5 24.2 62.9 42.8 141.9
01/09 00:10 1.8 62 3.4 -4.7 35 50 1001.4 1.6 8.9 20.4 23.9 61.9 41.6 137.8
01/09 00:00 1.7 62 3.38 -4.8 39 54 1001.4 1.6 8.8 20.4 23.8 61.8 41.4 137.1
31/08 23:50 1.7 59 3.22 -5.4 37 54 1001.4 1.6 8.5 20.1 23.2 60.2 39.5 130.2
31/08 23:40 1.6 64 3.46 -4.5 35 46 1001.4 1.6 9.0 20.5 24.1 62.7 42.5 140.8
31/08 23:30 1.6 63 3.41 -4.7 41 52 1001.6 1.6 8.9 20.4 24.0 62.2 41.9 138.7
31/08 23:20 1.6 64 3.46 -4.5 43 50 1001.4 1.6 9.0 20.5 24.1 62.7 42.5 140.8
31/08 23:10 1.6 63 3.41 -4.7 41 54 1001.6 1.6 8.9 20.4 24.0 62.2 41.9 138.7
31/08 23:00 1.6 64 3.46 -4.5 37 50 1001.8 1.6 9.0 20.5 24.1 62.7 42.5 140.9
31/08 22:50 1.5 60 3.23 -5.4 39 50 1002 1.6 8.5 20.2 23.3 60.5 39.7 131.0
31/08 22:40 1.6 65 3.52 -4.3 41 54 1002 1.6 9.1 20.6 24.4 63.3 43.3 143.5
31/08 22:30 1.5 57 3.06 -6.1 41 56 1002 1.6 8.2 20.0 22.7 58.8 37.6 123.7
31/08 22:20 1.5 62 3.33 -5 43 56 1001.8 1.6 8.7 20.4 23.7 61.5 40.9 135.4
31/08 22:10 1.4 61 3.26 -5.3 46 57 1001.8 1.6 8.6 20.3 23.5 60.9 40.1 132.5
31/08 22:00 1.5 61 3.28 -5.2 44 59 1001.8 1.6 8.6 20.3 23.5 61.0 40.3 133.2
31/08 21:50 1.5 63 3.39 -4.8 46 57 1001.7 1.6 8.9 20.4 23.9 62.1 41.7 138.0
31/08 21:40 1.4 65 3.47 -4.4 48 57 1001.7 1.6 9.0 20.6 24.2 62.9 42.7 141.6
31/08 21:30 1.5 66 3.55 -4.1 46 56 1001.7 1.6 9.2 20.7 24.5 63.7 43.7 145.0
31/08 21:20 1.4 67 3.58 -4 48 59 1001.6 1.6 9.3 20.8 24.7 64.1 44.1 146.5
31/08 21:10 1.6 57 3.09 -6 46 59 1001.4 1.6 8.2 20.0 22.8 59.0 37.9 124.8
31/08 21:00 1.5 55 2.96 -6.5 50 61 1001.5 1.6 7.9 19.8 22.3 57.8 36.4 119.4
31/08 20:50 1.5 59 3.17 -5.6 50 65 1001.6 1.6 8.4 20.1 23.1 59.9 39.0 128.4
31/08 20:40 1.4 62 3.31 -5.1 48 57 1001.5 1.6 8.7 20.3 23.6 61.3 40.7 134.6
31/08 20:30 1.3 63 3.34 -5 50 61 1001.6 1.6 8.8 20.4 23.8 61.7 41.2 136.1
31/08 20:20 1.4 66 3.52 -4.2 46 57 1001.6 1.6 9.1 20.7 24.4 63.4 43.3 143.8
31/08 20:10 1.1 69 3.61 -3.9 41 56 1001.7 1.6 9.3 20.9 24.9 64.6 44.6 148.4
31/08 20:00 0.6 75 3.79 -3.3 32 56 1001.8 1.6 9.7 21.3 25.7 66.9 47.2 157.4
31/08 19:50 0.7 74 3.77 -3.4 37 67 1001.9 1.6 9.7 21.2 25.6 66.6 46.9 156.3
31/08 19:40 1.5 68 3.66 -3.7 44 63 1001.9 1.6 9.4 20.9 24.9 64.8 45.1 149.8

Last Refresh: 01-Sep-2026 11:54:24

Bureau of Meteorology